createdAt,value
2022-09-04T00:02:15.845Z,5.18
2022-09-04T00:04:52.810Z,4.50
2022-09-04T00:07:28.875Z,4.45
2022-09-04T00:10:11.478Z,4.03
2022-09-04T00:12:46.380Z,4.55
2022-09-04T00:15:19.435Z,4.55
2022-09-04T00:17:54.511Z,4.30
2022-09-04T00:20:35.392Z,4.68
2022-09-04T00:23:11.081Z,4.75
2022-09-04T00:25:44.501Z,4.80
2022-09-04T00:28:20.683Z,4.40
2022-09-04T00:30:56.500Z,3.88
2022-09-04T00:33:33.503Z,4.10
2022-09-04T00:36:05.150Z,4.28
2022-09-04T00:38:42.233Z,4.20
2022-09-04T00:41:17.540Z,4.35
2022-09-04T00:44:21.361Z,4.28
2022-09-04T00:47:40.469Z,4.55
2022-09-04T00:50:34.946Z,3.78
2022-09-04T00:53:26.812Z,4.20
2022-09-04T00:56:08.768Z,4.80
2022-09-04T00:59:03.408Z,4.55
2022-09-04T01:01:32.230Z,4.45
2022-09-04T01:04:43.125Z,5.00
2022-09-04T01:07:38.760Z,5.57
2022-09-04T01:10:40.639Z,5.65
2022-09-04T01:13:13.120Z,4.75
2022-09-04T01:15:46.090Z,5.50
2022-09-04T01:18:19.901Z,5.60
2022-09-04T01:20:56.549Z,6.07
2022-09-04T01:24:08.613Z,5.20
2022-09-04T01:26:44.682Z,5.00
2022-09-04T01:29:28.345Z,5.40
2022-09-04T01:32:02.365Z,5.57
2022-09-04T01:34:40.689Z,6.00
2022-09-04T01:37:21.192Z,6.00
2022-09-04T01:40:02.801Z,6.28
2022-09-04T01:42:42.218Z,5.70
2022-09-04T01:45:11.966Z,5.32
2022-09-04T01:47:46.131Z,5.05
2022-09-04T01:50:21.505Z,5.93
2022-09-04T01:52:59.662Z,5.85
2022-09-04T01:55:35.479Z,5.40
2022-09-04T01:58:17.280Z,6.30
2022-09-04T02:00:57.589Z,6.05
2022-09-04T02:03:31.599Z,4.95
2022-09-04T02:06:06.213Z,5.03
2022-09-04T02:08:48.701Z,4.90
2022-09-04T02:11:19.022Z,5.78
2022-09-04T02:14:09.266Z,5.10
2022-09-04T02:16:46.950Z,4.68
2022-09-04T02:19:30.145Z,4.57
2022-09-04T02:22:04.807Z,4.55
2022-09-04T02:24:38.491Z,4.80
2022-09-04T02:27:11.803Z,4.85
2022-09-04T02:29:47.249Z,4.78
2022-09-04T02:32:22.021Z,4.75
2022-09-04T02:34:58.846Z,5.30
2022-09-04T02:37:34.156Z,4.53
2022-09-04T02:40:12.059Z,4.45
2022-09-04T02:42:49.590Z,4.93
2022-09-04T02:45:26.593Z,5.47
2022-09-04T02:48:04.017Z,4.72
2022-09-04T02:50:46.138Z,4.60
2022-09-04T02:53:25.304Z,4.15
2022-09-04T02:56:14.230Z,4.68
2022-09-04T02:58:58.463Z,4.25
2022-09-04T03:01:34.653Z,4.28
2022-09-04T03:04:09.951Z,4.40
2022-09-04T03:06:51.978Z,4.57
2022-09-04T03:09:26.006Z,4.18
2022-09-04T03:12:02.205Z,3.58
2022-09-04T03:14:40.022Z,4.30
2022-09-04T03:17:16.452Z,4.10
2022-09-04T03:19:52.994Z,3.97
2022-09-04T03:22:26.582Z,3.83
2022-09-04T03:25:07.800Z,4.50
2022-09-04T03:27:36.359Z,4.38
2022-09-04T03:30:07.891Z,4.25
2022-09-04T03:32:49.195Z,4.72
2022-09-04T03:35:24.691Z,4.43
2022-09-04T03:38:08.615Z,4.10
2022-09-04T03:40:43.204Z,4.25
2022-09-04T03:43:34.071Z,4.45
2022-09-04T03:46:13.536Z,5.60
2022-09-04T03:48:58.431Z,5.88
2022-09-04T03:51:38.235Z,6.20
2022-09-04T03:54:24.309Z,5.50
2022-09-04T03:57:07.792Z,6.43
2022-09-04T03:59:51.492Z,6.90
2022-09-04T04:02:28.281Z,6.80
2022-09-04T04:05:30.089Z,7.13
2022-09-04T04:08:27.416Z,6.60
2022-09-04T04:11:02.495Z,7.07
2022-09-04T04:13:42.852Z,6.38
2022-09-04T04:16:25.565Z,5.95
2022-09-04T04:19:11.357Z,5.90
2022-09-04T04:21:55.712Z,5.70
2022-09-04T04:24:39.093Z,5.75
2022-09-04T04:27:23.576Z,5.47
2022-09-04T04:30:04.950Z,5.15
2022-09-04T04:32:47.684Z,5.55
2022-09-04T04:35:27.468Z,6.20
2022-09-04T04:38:09.374Z,6.05
2022-09-04T04:40:52.435Z,5.75
2022-09-04T04:43:26.076Z,5.45
2022-09-04T04:46:00.337Z,6.07
2022-09-04T04:51:56.251Z,6.47
2022-09-04T04:54:47.380Z,5.85
2022-09-04T04:57:32.677Z,6.25
2022-09-04T05:00:12.695Z,6.30
2022-09-04T05:02:51.658Z,7.05
2022-09-04T05:05:26.535Z,6.43
2022-09-04T05:08:07.562Z,7.13
2022-09-04T05:10:45.342Z,7.20
2022-09-04T05:13:23.316Z,6.97
2022-09-04T05:16:10.027Z,7.30
2022-09-04T05:18:50.271Z,7.60
2022-09-04T05:21:22.730Z,7.40
2022-09-04T05:23:57.528Z,7.47
2022-09-04T05:26:35.268Z,7.07
2022-09-04T05:29:11.896Z,6.60
2022-09-04T05:31:49.453Z,6.25
2022-09-04T05:34:26.731Z,6.72
2022-09-04T05:37:07.616Z,5.38
2022-09-04T05:39:45.726Z,5.85
2022-09-04T05:42:39.170Z,6.75
2022-09-04T05:45:14.165Z,6.97
2022-09-04T05:47:49.460Z,6.85
2022-09-04T05:50:34.003Z,7.30
2022-09-04T05:53:29.708Z,7.55
2022-09-04T05:56:27.851Z,7.18
2022-09-04T05:59:10.136Z,5.85
2022-09-04T06:01:59.820Z,4.53
2022-09-04T06:04:54.069Z,6.18
2022-09-04T06:07:30.518Z,5.10
2022-09-04T06:10:10.685Z,5.57
2022-09-04T06:13:08.954Z,5.68
2022-09-04T06:15:54.271Z,5.88
2022-09-04T06:18:44.990Z,5.55
2022-09-04T06:21:51.448Z,5.60
2022-09-04T06:24:50.959Z,5.72
2022-09-04T06:27:34.548Z,5.57
2022-09-04T06:33:02.182Z,5.45
2022-09-04T06:35:47.063Z,5.72
2022-09-04T06:38:32.496Z,5.65
2022-09-04T06:41:24.139Z,5.10
2022-09-04T06:44:00.562Z,4.95
2022-09-04T06:46:35.443Z,5.20
2022-09-04T06:49:13.257Z,4.57
2022-09-04T06:52:07.586Z,4.75
2022-09-04T06:54:48.444Z,4.80
2022-09-04T06:57:35.273Z,4.82
2022-09-04T07:00:07.082Z,4.32
2022-09-04T07:03:13.575Z,4.50
2022-09-04T07:05:53.897Z,4.63
2022-09-04T07:08:33.815Z,5.10
2022-09-04T07:11:15.754Z,4.80
2022-09-04T07:14:00.688Z,4.07
2022-09-04T07:16:38.902Z,4.30
2022-09-04T07:19:37.557Z,4.10
2022-09-04T07:22:20.056Z,3.92
2022-09-04T07:25:04.940Z,4.07
2022-09-04T07:27:46.048Z,4.43
2022-09-04T07:30:16.043Z,4.20
2022-09-04T07:32:49.385Z,3.97
2022-09-04T07:35:22.560Z,3.85
2022-09-04T07:37:59.720Z,4.15
2022-09-04T07:40:38.162Z,3.50
2022-09-04T07:43:12.506Z,3.83
2022-09-04T07:45:47.339Z,3.13
2022-09-04T07:48:23.935Z,3.70
2022-09-04T07:51:10.057Z,3.63
2022-09-04T07:54:07.654Z,3.35
2022-09-04T07:56:49.305Z,3.47
2022-09-04T07:59:32.681Z,3.65
2022-09-04T08:02:15.495Z,3.55
2022-09-04T08:05:02.470Z,3.40
2022-09-04T08:08:03.781Z,3.30
2022-09-04T08:10:39.222Z,3.10
2022-09-04T08:13:25.923Z,3.28
2022-09-04T08:16:07.168Z,2.70
2022-09-04T08:18:53.225Z,2.95
2022-09-04T08:21:28.838Z,2.92
2022-09-04T08:24:13.763Z,3.15
2022-09-04T08:26:54.871Z,2.47
2022-09-04T08:29:40.077Z,2.63
2022-09-04T08:32:32.447Z,2.60
2022-09-04T08:35:23.252Z,2.45
2022-09-04T08:38:05.006Z,2.38
2022-09-04T08:41:11.539Z,2.33
2022-09-04T08:43:58.825Z,2.38
2022-09-04T08:47:01.599Z,2.85
2022-09-04T08:49:58.934Z,2.20
2022-09-04T08:52:55.010Z,2.50
2022-09-04T08:55:47.029Z,3.50
2022-09-04T08:58:54.181Z,2.72
2022-09-04T09:01:56.701Z,2.20
2022-09-04T09:05:09.944Z,2.60
2022-09-04T09:08:06.376Z,2.40
2022-09-04T09:11:02.072Z,2.53
2022-09-04T09:14:14.650Z,1.95
2022-09-04T09:16:45.129Z,2.28
2022-09-04T09:19:22.759Z,1.98
2022-09-04T09:22:11.353Z,1.80
2022-09-04T09:24:57.677Z,1.40
2022-09-04T09:28:00.637Z,1.77
2022-09-04T09:30:45.831Z,1.70
2022-09-04T09:33:50.482Z,1.70
2022-09-04T09:39:38.863Z,1.45
2022-09-04T09:42:49.386Z,1.00
2022-09-04T09:45:35.977Z,0.77
2022-09-04T09:48:34.457Z,1.17
2022-09-04T09:51:37.608Z,1.08
2022-09-04T09:54:29.641Z,1.08
2022-09-04T09:57:33.250Z,1.20
2022-09-04T10:00:13.058Z,1.13
2022-09-04T10:03:07.926Z,1.52
2022-09-04T10:06:14.854Z,1.10
2022-09-04T10:09:18.567Z,1.38
2022-09-04T10:12:25.600Z,1.30
2022-09-04T10:15:30.621Z,1.23
2022-09-04T10:18:41.471Z,1.27
2022-09-04T10:21:37.864Z,1.30
2022-09-04T10:24:47.426Z,1.10
2022-09-04T10:27:51.326Z,1.38
2022-09-04T10:30:21.186Z,0.90
2022-09-04T10:33:14.198Z,1.20
2022-09-04T10:35:58.854Z,0.90
2022-09-04T10:38:33.406Z,0.80
2022-09-04T10:41:39.688Z,0.93
2022-09-04T10:44:44.300Z,1.02
2022-09-04T10:47:26.630Z,1.20
2022-09-04T10:50:24.058Z,1.30
2022-09-04T10:53:20.667Z,1.30
2022-09-04T10:56:06.974Z,1.42
2022-09-04T10:59:31.038Z,1.40
2022-09-04T11:02:34.892Z,1.67
2022-09-04T11:05:20.855Z,6.53
2022-09-04T11:08:09.308Z,1.58
2022-09-04T11:10:59.293Z,1.65
2022-09-04T11:13:56.513Z,1.40
2022-09-04T11:17:08.728Z,1.33
2022-09-04T11:20:18.668Z,1.45
2022-09-04T11:23:26.542Z,1.30
2022-09-04T11:26:39.171Z,1.40
2022-09-04T11:29:34.997Z,1.33
2022-09-04T11:32:32.277Z,1.30
2022-09-04T11:35:58.731Z,1.25
2022-09-04T11:38:52.373Z,1.40
2022-09-04T11:41:43.693Z,1.30
2022-09-04T11:44:35.788Z,1.10
2022-09-04T11:47:28.410Z,1.30
2022-09-04T11:50:09.671Z,2.15
2022-09-04T11:53:11.358Z,1.15
2022-09-04T11:56:00.689Z,1.08
2022-09-04T11:58:59.723Z,1.65
2022-09-04T12:01:52.512Z,1.25
2022-09-04T12:04:31.625Z,1.40
2022-09-04T12:07:14.111Z,1.27
2022-09-04T12:10:09.065Z,1.13
2022-09-04T12:13:15.017Z,1.00
2022-09-04T12:16:12.306Z,1.00
2022-09-04T12:19:21.192Z,0.90
2022-09-04T12:22:23.647Z,0.80
2022-09-04T12:25:29.591Z,1.05
2022-09-04T12:28:37.802Z,1.33
2022-09-04T12:31:28.956Z,1.20
2022-09-04T12:34:24.165Z,1.10
2022-09-04T12:37:12.337Z,1.38
2022-09-04T12:39:57.424Z,1.17
2022-09-04T12:42:30.110Z,1.30
2022-09-04T12:45:07.849Z,1.00
2022-09-04T12:47:54.408Z,1.20
2022-09-04T12:50:35.534Z,1.20
2022-09-04T12:53:25.649Z,1.48
2022-09-04T12:56:03.096Z,1.35
2022-09-04T12:58:59.248Z,1.30
2022-09-04T13:01:39.600Z,1.33
2022-09-04T13:04:20.231Z,1.33
2022-09-04T13:07:07.015Z,1.20
2022-09-04T13:09:53.331Z,1.20
2022-09-04T13:12:29.413Z,1.20
2022-09-04T13:15:14.681Z,1.00
2022-09-04T13:17:53.120Z,1.30
2022-09-04T13:20:31.186Z,0.88
2022-09-04T13:23:14.923Z,1.05
2022-09-04T13:25:57.781Z,1.10
2022-09-04T13:28:37.827Z,1.10
2022-09-04T13:31:39.991Z,1.10
2022-09-04T13:34:18.730Z,1.70
2022-09-04T13:37:04.314Z,1.00
2022-09-04T13:39:55.980Z,1.20
2022-09-04T13:42:54.483Z,1.00
2022-09-04T13:45:24.197Z,1.00
2022-09-04T13:48:02.387Z,1.00
2022-09-04T13:50:33.647Z,1.02
2022-09-04T13:53:12.206Z,1.20
2022-09-04T13:55:43.387Z,1.17
2022-09-04T13:58:20.206Z,1.23
2022-09-04T14:00:52.633Z,1.00
2022-09-04T14:03:34.475Z,1.10
2022-09-04T14:06:04.477Z,1.27
2022-09-04T14:08:34.692Z,1.15
2022-09-04T14:11:40.436Z,1.00
2022-09-04T14:14:38.950Z,1.20
2022-09-04T14:17:07.814Z,1.02
2022-09-04T14:19:54.903Z,1.17
2022-09-04T14:22:42.200Z,1.08
2022-09-04T14:25:19.453Z,1.13
2022-09-04T14:27:56.901Z,1.30
2022-09-04T14:30:27.987Z,1.20
2022-09-04T14:33:19.018Z,1.20
2022-09-04T14:35:59.866Z,0.88
2022-09-04T14:38:50.414Z,1.00
2022-09-04T14:41:36.202Z,0.85
2022-09-04T14:44:24.918Z,1.02
2022-09-04T14:47:07.166Z,1.10
2022-09-04T14:49:47.391Z,1.25
2022-09-04T14:52:21.491Z,1.20
2022-09-04T14:54:54.455Z,1.00
2022-09-04T14:57:29.308Z,1.30
2022-09-04T15:00:06.061Z,1.10
2022-09-04T15:02:38.869Z,1.10
2022-09-04T15:05:18.122Z,1.23
2022-09-04T15:08:01.552Z,1.27
2022-09-04T15:10:36.060Z,1.35
2022-09-04T15:13:35.583Z,1.88
2022-09-04T15:16:18.165Z,1.10
2022-09-04T15:18:55.459Z,1.50
2022-09-04T15:21:30.946Z,1.02
2022-09-04T15:24:11.431Z,1.20
2022-09-04T15:26:46.753Z,1.15
2022-09-04T15:29:21.914Z,1.23
2022-09-04T15:32:00.189Z,1.20
2022-09-04T15:34:29.487Z,1.00
2022-09-04T15:37:10.058Z,1.85
2022-09-04T15:39:48.459Z,1.67
2022-09-04T15:42:34.564Z,1.25
2022-09-04T15:45:09.978Z,1.20
2022-09-04T15:47:56.728Z,1.10
2022-09-04T15:50:28.485Z,0.90
2022-09-04T15:53:10.037Z,1.02
2022-09-04T15:55:42.671Z,1.38
2022-09-04T15:58:17.012Z,1.30
2022-09-04T16:01:12.022Z,1.50
2022-09-04T16:04:04.433Z,1.30
2022-09-04T16:06:38.178Z,1.30
2022-09-04T16:09:12.440Z,1.33
2022-09-04T16:11:48.345Z,1.30
2022-09-04T16:14:21.365Z,1.17
2022-09-04T16:16:53.418Z,1.00
2022-09-04T16:19:28.136Z,1.00
2022-09-04T16:22:07.438Z,1.02
2022-09-04T16:24:40.506Z,1.17
2022-09-04T16:27:14.655Z,1.10
2022-09-04T16:29:48.128Z,1.17
2022-09-04T16:32:21.466Z,1.25
2022-09-04T16:34:54.227Z,1.20
2022-09-04T16:37:28.453Z,1.27
2022-09-04T16:40:04.444Z,1.10
2022-09-04T16:42:42.583Z,1.15
2022-09-04T16:45:17.054Z,0.98
2022-09-04T16:47:54.807Z,1.45
2022-09-04T16:50:31.467Z,1.33
2022-09-04T16:53:13.849Z,1.52
2022-09-04T16:55:54.710Z,1.23
2022-09-04T16:58:38.334Z,1.15
2022-09-04T17:01:15.672Z,1.48
2022-09-04T17:04:13.306Z,1.30
2022-09-04T17:07:02.366Z,1.88
2022-09-04T17:09:43.891Z,1.40
2022-09-04T17:12:25.429Z,1.25
2022-09-04T17:15:06.184Z,1.33
2022-09-04T17:17:37.282Z,1.50
2022-09-04T17:20:08.558Z,1.35
2022-09-04T17:29:01.003Z,1.40
2022-09-04T17:29:02.353Z,1.40
2022-09-04T17:29:15.230Z,1.63
2022-09-04T17:31:45.618Z,1.38
2022-09-04T17:40:35.769Z,1.48
2022-09-04T17:40:46.390Z,1.80
2022-09-04T17:40:48.342Z,1.55
2022-09-04T17:43:23.329Z,1.70
2022-09-04T17:46:02.168Z,1.95
2022-09-04T17:48:34.069Z,1.60
2022-09-04T17:51:03.927Z,1.60
2022-09-04T17:53:34.800Z,1.73
2022-09-04T17:56:10.881Z,2.05
2022-09-04T17:58:47.070Z,2.08
2022-09-04T18:01:23.291Z,2.00
2022-09-04T18:04:21.653Z,2.05
2022-09-04T18:06:55.728Z,4.80
2022-09-04T18:09:30.359Z,5.28
2022-09-04T18:12:10.981Z,4.80
2022-09-04T18:14:48.811Z,3.30
2022-09-04T18:17:39.963Z,2.70
2022-09-04T18:20:18.526Z,3.33
2022-09-04T18:23:18.104Z,2.42
2022-09-04T18:25:51.498Z,2.03
2022-09-04T18:28:26.469Z,2.00
2022-09-04T18:37:10.333Z,2.10
2022-09-04T18:37:16.256Z,2.40
2022-09-04T18:37:17.346Z,1.90
2022-09-04T18:39:49.985Z,2.10
2022-09-04T18:50:24.435Z,2.08
2022-09-04T18:50:34.161Z,2.10
2022-09-04T18:50:50.392Z,1.83
2022-09-04T18:51:20.016Z,2.35
2022-09-04T18:53:54.013Z,2.20
2022-09-04T18:56:27.670Z,2.08
2022-09-04T18:59:05.261Z,2.50
2022-09-04T19:01:41.365Z,1.90
2022-09-04T19:04:43.300Z,1.90
2022-09-04T19:07:23.147Z,1.90
2022-09-04T19:10:04.574Z,1.75
2022-09-04T19:12:47.204Z,1.88
2022-09-04T19:15:35.965Z,2.05
2022-09-04T19:18:14.799Z,2.00
2022-09-04T19:20:48.293Z,2.00
2022-09-04T19:23:26.425Z,2.10
2022-09-04T19:26:00.993Z,2.15
2022-09-04T19:31:13.559Z,1.77
2022-09-04T19:33:45.966Z,1.90
2022-09-04T19:36:22.945Z,1.65
2022-09-04T19:45:57.503Z,1.98
2022-09-04T19:46:01.339Z,2.67
2022-09-04T19:46:15.174Z,1.90
2022-09-04T19:48:00.990Z,2.05
2022-09-04T19:53:40.661Z,2.33
2022-09-04T19:53:41.129Z,2.47
2022-09-04T19:56:26.494Z,2.30
2022-09-04T19:59:00.134Z,2.10
2022-09-04T20:01:33.842Z,2.30
2022-09-04T20:04:09.806Z,2.30
2022-09-04T20:06:47.181Z,2.38
2022-09-04T20:09:21.690Z,2.08
2022-09-04T20:11:56.993Z,3.60
2022-09-04T20:14:32.113Z,2.90
2022-09-04T20:17:10.069Z,2.63
2022-09-04T20:19:42.766Z,2.50
2022-09-04T20:22:27.529Z,2.40
2022-09-04T20:25:18.195Z,2.60
2022-09-04T20:27:49.519Z,2.40
2022-09-04T20:30:22.552Z,2.40
2022-09-04T20:33:03.960Z,2.80
2022-09-04T20:35:40.073Z,3.10
2022-09-04T20:38:23.125Z,2.75
2022-09-04T20:40:56.472Z,4.10
2022-09-04T20:43:32.114Z,4.32
2022-09-04T20:48:37.683Z,3.42
2022-09-04T20:52:51.141Z,2.40
2022-09-04T20:52:55.656Z,2.60
2022-09-04T20:55:22.425Z,3.03
2022-09-04T21:03:05.441Z,3.00
2022-09-04T21:03:10.994Z,2.88
2022-09-04T21:04:11.174Z,3.53
2022-09-04T21:06:45.980Z,3.25
2022-09-04T21:09:27.234Z,3.33
2022-09-04T21:12:05.886Z,3.08
2022-09-04T21:14:45.674Z,3.35
2022-09-04T21:17:45.543Z,3.08
2022-09-04T21:20:59.180Z,3.10
2022-09-04T21:24:07.974Z,2.97
2022-09-04T21:26:57.597Z,3.10
2022-09-04T21:29:52.950Z,3.10
2022-09-04T21:32:34.756Z,2.55
2022-09-04T21:35:11.208Z,2.88
2022-09-04T21:37:51.858Z,3.03
2022-09-04T21:40:52.535Z,2.70
2022-09-04T21:43:48.128Z,2.63
2022-09-04T21:46:29.360Z,2.95
2022-09-04T21:49:26.467Z,2.90
2022-09-04T21:52:07.185Z,2.85
2022-09-04T21:56:33.308Z,2.75
2022-09-04T22:02:30.168Z,2.75
2022-09-04T22:02:38.449Z,2.60
2022-09-04T22:04:16.537Z,2.50
2022-09-04T22:08:33.212Z,2.38
2022-09-04T22:13:41.409Z,3.00
2022-09-04T22:13:41.993Z,2.55
2022-09-04T22:16:00.256Z,2.58
2022-09-04T22:18:42.391Z,3.05
2022-09-04T22:21:25.426Z,2.90
2022-09-04T22:24:20.143Z,3.45
2022-09-04T22:27:19.546Z,3.03
2022-09-04T22:30:05.290Z,3.20
2022-09-04T22:33:06.320Z,3.50
2022-09-04T22:36:13.342Z,3.00
2022-09-04T22:39:18.404Z,2.90
2022-09-04T22:42:22.295Z,2.97
2022-09-04T22:45:26.425Z,2.95
2022-09-04T22:48:13.403Z,2.72
2022-09-04T22:50:53.049Z,3.05
2022-09-04T22:53:53.200Z,3.00
2022-09-04T22:56:38.053Z,2.80
2022-09-04T22:59:27.709Z,2.72
2022-09-04T23:02:18.624Z,3.42
2022-09-04T23:05:11.233Z,2.75
2022-09-04T23:13:52.953Z,2.85
2022-09-04T23:13:53.290Z,2.97
2022-09-04T23:14:19.666Z,3.17
2022-09-04T23:17:21.968Z,3.50
2022-09-04T23:26:32.321Z,3.83
2022-09-04T23:26:46.613Z,3.35
2022-09-04T23:27:00.460Z,3.70
2022-09-04T23:29:47.928Z,3.20
2022-09-04T23:32:53.758Z,3.33
2022-09-04T23:35:35.219Z,3.20
2022-09-04T23:38:28.365Z,3.75
2022-09-04T23:41:05.059Z,4.07
2022-09-04T23:43:50.285Z,3.42
2022-09-04T23:46:37.423Z,3.47
2022-09-04T23:49:36.267Z,3.38
2022-09-04T23:52:12.659Z,3.22
2022-09-04T23:55:00.384Z,3.40
2022-09-04T23:57:29.765Z,3.42
